createdAt,value
2022-08-22T00:01:30.958Z,82.43
2022-08-22T00:03:06.551Z,84.44
2022-08-22T00:04:41.643Z,82.07
2022-08-22T00:08:19.139Z,81.80
2022-08-22T00:11:37.161Z,81.65
2022-08-22T00:14:49.339Z,81.37
2022-08-22T00:18:31.910Z,81.36
2022-08-22T00:21:53.128Z,81.38
2022-08-22T00:25:03.336Z,81.32
2022-08-22T00:28:29.837Z,81.14
2022-08-22T00:31:41.302Z,81.10
2022-08-22T00:34:57.096Z,80.95
2022-08-22T00:38:26.939Z,80.90
2022-08-22T00:41:49.856Z,80.74
2022-08-22T00:45:14.155Z,80.69
2022-08-22T00:48:55.905Z,80.86
2022-08-22T00:52:16.510Z,80.79
2022-08-22T00:56:11.066Z,80.80
2022-08-22T00:59:45.058Z,81.25
2022-08-22T01:03:51.456Z,82.06
2022-08-22T01:07:25.231Z,79.31
2022-08-22T01:10:52.512Z,78.85
2022-08-22T01:14:34.919Z,80.58
2022-08-22T01:17:47.907Z,81.35
2022-08-22T01:21:29.477Z,82.04
2022-08-22T01:25:07.712Z,82.23
2022-08-22T01:28:36.265Z,82.49
2022-08-22T01:31:58.722Z,82.45
2022-08-22T01:35:18.067Z,82.46
2022-08-22T01:38:46.027Z,82.32
2022-08-22T01:42:16.296Z,82.16
2022-08-22T01:45:35.112Z,82.29
2022-08-22T01:48:50.405Z,82.42
2022-08-22T01:52:11.425Z,82.79
2022-08-22T01:55:20.009Z,82.94
2022-08-22T01:58:32.154Z,82.88
2022-08-22T02:01:50.210Z,83.05
2022-08-22T02:05:02.338Z,83.18
2022-08-22T02:08:31.449Z,83.33
2022-08-22T02:11:50.901Z,83.33
2022-08-22T02:15:45.811Z,83.13
2022-08-22T02:18:59.389Z,82.67
2022-08-22T02:22:19.299Z,82.51
2022-08-22T02:25:27.295Z,82.61
2022-08-22T02:28:33.134Z,83.10
2022-08-22T02:31:45.455Z,83.31
2022-08-22T02:35:09.461Z,83.45
2022-08-22T02:38:30.015Z,83.43
2022-08-22T02:41:55.233Z,83.27
2022-08-22T02:45:15.984Z,83.35
2022-08-22T02:48:45.821Z,83.30
2022-08-22T02:52:24.630Z,83.29
2022-08-22T02:55:39.494Z,83.24
2022-08-22T02:59:06.448Z,83.29
2022-08-22T03:02:39.621Z,83.19
2022-08-22T03:05:45.903Z,82.97
2022-08-22T03:09:07.258Z,83.24
2022-08-22T03:12:56.987Z,82.92
2022-08-22T03:16:13.354Z,82.93
2022-08-22T03:19:24.456Z,82.80
2022-08-22T03:22:53.227Z,82.45
2022-08-22T03:26:07.571Z,82.00
2022-08-22T03:29:23.032Z,81.92
2022-08-22T03:33:18.002Z,81.73
2022-08-22T03:36:29.695Z,81.45
2022-08-22T03:39:56.439Z,81.54
2022-08-22T03:43:12.116Z,81.60
2022-08-22T03:46:40.365Z,81.65
2022-08-22T03:49:59.788Z,81.78
2022-08-22T03:53:44.205Z,82.23
2022-08-22T03:57:08.396Z,81.96
2022-08-22T04:00:14.849Z,81.78
2022-08-22T04:04:04.816Z,81.69
2022-08-22T04:07:37.128Z,82.05
2022-08-22T04:10:55.217Z,82.11
2022-08-22T04:14:16.915Z,82.36
2022-08-22T04:18:10.466Z,82.53
2022-08-22T04:21:48.076Z,82.69
2022-08-22T04:25:18.521Z,82.86
2022-08-22T04:28:44.028Z,83.27
2022-08-22T04:31:58.868Z,83.38
2022-08-22T04:35:17.009Z,83.48
2022-08-22T04:38:27.347Z,83.23
2022-08-22T04:41:53.565Z,83.31
2022-08-22T04:45:01.327Z,83.29
2022-08-22T04:48:23.516Z,83.02
2022-08-22T04:51:38.391Z,82.85
2022-08-22T04:55:07.621Z,82.71
2022-08-22T04:58:47.559Z,82.75
2022-08-22T05:01:59.417Z,82.64
2022-08-22T05:05:13.768Z,82.46
2022-08-22T05:08:25.509Z,82.37
2022-08-22T05:11:31.254Z,82.14
2022-08-22T05:14:54.489Z,82.18
2022-08-22T05:18:04.197Z,82.29
2022-08-22T05:21:11.219Z,82.22
2022-08-22T05:24:51.668Z,81.99
2022-08-22T05:28:07.344Z,82.02
2022-08-22T05:31:15.708Z,82.02
2022-08-22T05:34:23.805Z,81.80
2022-08-22T05:37:43.208Z,81.41
2022-08-22T05:40:54.843Z,81.47
2022-08-22T05:44:06.955Z,81.39
2022-08-22T05:47:29.083Z,81.14
2022-08-22T05:50:43.352Z,80.86
2022-08-22T05:53:50.657Z,80.71
2022-08-22T05:57:07.942Z,80.71
2022-08-22T06:00:22.291Z,81.09
2022-08-22T06:03:48.899Z,81.08
2022-08-22T06:07:07.406Z,80.81
2022-08-22T06:10:27.796Z,81.09
2022-08-22T06:13:41.463Z,81.17
2022-08-22T06:16:51.252Z,81.58
2022-08-22T06:19:54.845Z,81.83
2022-08-22T06:23:01.874Z,82.24
2022-08-22T06:26:06.157Z,82.47
2022-08-22T06:29:36.283Z,82.57
2022-08-22T06:32:59.909Z,82.36
2022-08-22T06:36:31.021Z,82.08
2022-08-22T06:39:39.148Z,81.44
2022-08-22T06:42:47.126Z,81.28
2022-08-22T06:45:53.018Z,81.25
2022-08-22T06:48:58.640Z,80.47
2022-08-22T06:52:08.523Z,78.86
2022-08-22T06:55:12.000Z,76.88
2022-08-22T06:58:25.148Z,76.52
2022-08-22T07:01:35.276Z,76.34
2022-08-22T07:04:39.699Z,76.10
2022-08-22T07:07:42.852Z,74.38
2022-08-22T07:10:56.267Z,74.38
2022-08-22T07:14:14.059Z,74.14
2022-08-22T07:17:26.419Z,73.09
2022-08-22T07:20:46.767Z,73.24
2022-08-22T07:23:50.389Z,72.31
2022-08-22T07:27:25.733Z,71.03
2022-08-22T07:30:47.908Z,70.03
2022-08-22T07:34:00.393Z,68.30
2022-08-22T07:37:19.534Z,68.11
2022-08-22T07:40:25.696Z,67.26
2022-08-22T07:43:43.048Z,66.04
2022-08-22T07:47:05.557Z,65.80
2022-08-22T07:50:14.559Z,64.99
2022-08-22T07:53:20.990Z,64.63
2022-08-22T07:56:29.187Z,63.40
2022-08-22T07:59:34.857Z,63.69
2022-08-22T08:02:46.220Z,63.04
2022-08-22T08:05:49.999Z,62.85
2022-08-22T08:08:55.510Z,62.46
2022-08-22T08:12:00.785Z,61.34
2022-08-22T08:15:08.465Z,60.73
2022-08-22T08:18:19.418Z,60.15
2022-08-22T08:21:31.202Z,58.77
2022-08-22T08:24:44.593Z,58.92
2022-08-22T08:28:10.001Z,58.26
2022-08-22T08:31:32.034Z,57.34
2022-08-22T08:34:38.241Z,56.97
2022-08-22T08:37:45.686Z,56.14
2022-08-22T08:41:22.829Z,55.87
2022-08-22T08:44:39.015Z,55.11
2022-08-22T08:47:54.832Z,53.82
2022-08-22T08:51:29.282Z,53.95
2022-08-22T08:58:56.884Z,53.32
2022-08-22T09:02:35.043Z,52.73
2022-08-22T09:05:47.208Z,52.04
2022-08-22T09:09:07.799Z,52.27
2022-08-22T09:12:33.699Z,51.31
2022-08-22T09:15:39.842Z,50.55
2022-08-22T09:19:03.587Z,50.02
2022-08-22T09:22:50.629Z,49.98
2022-08-22T09:25:57.022Z,49.67
2022-08-22T09:29:35.443Z,48.34
2022-08-22T09:33:06.427Z,48.21
2022-08-22T09:36:28.344Z,47.35
2022-08-22T09:39:38.739Z,47.16
2022-08-22T09:40:15.239Z,54.07
2022-08-22T09:42:55.354Z,47.19
2022-08-22T09:46:31.364Z,46.74
2022-08-22T09:49:38.152Z,47.32
2022-08-22T09:53:19.063Z,47.00
2022-08-22T09:56:31.451Z,46.41
2022-08-22T09:59:59.132Z,46.24
2022-08-22T10:03:17.422Z,44.44
2022-08-22T10:06:25.254Z,44.74
2022-08-22T10:09:42.998Z,42.60
2022-08-22T10:12:59.637Z,43.61
2022-08-22T10:16:17.564Z,43.45
2022-08-22T10:19:44.878Z,43.99
2022-08-22T10:23:18.247Z,42.56
2022-08-22T10:26:54.537Z,43.92
2022-08-22T10:30:13.159Z,41.83
2022-08-22T10:33:25.112Z,40.44
2022-08-22T10:36:41.201Z,41.27
2022-08-22T10:40:03.716Z,40.62
2022-08-22T10:43:17.533Z,40.91
2022-08-22T10:46:46.541Z,40.06
2022-08-22T10:49:59.113Z,39.75
2022-08-22T10:53:31.302Z,38.39
2022-08-22T10:56:40.709Z,38.98
2022-08-22T11:00:13.104Z,39.70
2022-08-22T11:03:32.002Z,40.60
2022-08-22T11:06:46.533Z,37.11
2022-08-22T11:10:03.169Z,38.82
2022-08-22T11:13:19.458Z,37.99
2022-08-22T11:16:44.364Z,38.17
2022-08-22T11:20:16.230Z,39.55
2022-08-22T11:23:55.209Z,39.37
2022-08-22T11:27:20.968Z,38.94
2022-08-22T11:30:58.090Z,38.13
2022-08-22T11:34:39.628Z,38.09
2022-08-22T11:38:03.220Z,38.18
2022-08-22T11:41:22.019Z,36.89
2022-08-22T11:44:50.776Z,36.75
2022-08-22T11:48:47.414Z,37.21
2022-08-22T11:52:07.026Z,38.45
2022-08-22T11:55:33.156Z,37.04
2022-08-22T11:59:02.790Z,37.93
2022-08-22T12:02:26.543Z,40.32
2022-08-22T12:05:35.952Z,44.73
2022-08-22T12:08:43.513Z,44.59
2022-08-22T12:12:11.132Z,40.95
2022-08-22T12:15:49.106Z,36.77
2022-08-22T12:19:15.807Z,35.44
2022-08-22T12:22:44.351Z,36.94
2022-08-22T12:25:52.796Z,37.89
2022-08-22T12:29:18.450Z,39.28
2022-08-22T12:32:37.985Z,38.04
2022-08-22T12:35:56.195Z,37.65
2022-08-22T12:39:23.455Z,37.92
2022-08-22T12:42:54.690Z,37.64
2022-08-22T12:46:04.312Z,36.54
2022-08-22T12:49:30.025Z,38.36
2022-08-22T12:53:19.973Z,37.31
2022-08-22T12:56:23.366Z,37.28
2022-08-22T12:59:35.695Z,37.94
2022-08-22T13:02:41.546Z,39.52
2022-08-22T13:05:57.183Z,36.93
2022-08-22T13:09:28.922Z,37.99
2022-08-22T13:12:44.359Z,39.84
2022-08-22T13:16:00.103Z,38.41
2022-08-22T13:19:13.724Z,38.32
2022-08-22T13:22:21.105Z,39.95
2022-08-22T13:25:30.653Z,38.33
2022-08-22T13:28:41.074Z,40.72
2022-08-22T13:31:52.687Z,41.85
2022-08-22T13:34:59.617Z,43.95
2022-08-22T13:38:13.709Z,46.73
2022-08-22T13:41:25.892Z,48.15
2022-08-22T13:44:37.923Z,49.14
2022-08-22T13:48:03.909Z,49.71
2022-08-22T13:51:14.545Z,50.28
2022-08-22T13:54:40.195Z,50.50
2022-08-22T13:57:51.709Z,49.57
2022-08-22T14:01:04.248Z,51.26
2022-08-22T14:04:36.297Z,51.66
2022-08-22T14:08:01.258Z,52.20
2022-08-22T14:11:17.853Z,53.63
2022-08-22T14:14:26.581Z,53.26
2022-08-22T14:17:43.098Z,53.99
2022-08-22T14:20:47.789Z,54.53
2022-08-22T14:23:53.533Z,53.93
2022-08-22T14:26:59.528Z,54.99
2022-08-22T14:30:18.899Z,55.73
2022-08-22T14:33:26.104Z,55.55
2022-08-22T14:36:47.914Z,55.90
2022-08-22T14:39:59.138Z,55.74
2022-08-22T14:43:28.964Z,55.94
2022-08-22T14:46:57.918Z,56.39
2022-08-22T14:50:11.361Z,57.20
2022-08-22T14:53:18.531Z,56.14
2022-08-22T14:56:25.201Z,55.44
2022-08-22T14:59:50.127Z,54.96
2022-08-22T15:02:56.289Z,54.88
2022-08-22T15:06:30.205Z,55.74
2022-08-22T15:10:20.771Z,56.93
2022-08-22T15:13:25.325Z,57.45
2022-08-22T15:16:40.469Z,57.17
2022-08-22T15:19:48.096Z,57.00
2022-08-22T15:23:03.361Z,56.87
2022-08-22T15:26:23.014Z,57.47
2022-08-22T15:29:31.598Z,57.52
2022-08-22T15:32:43.295Z,58.02
2022-08-22T15:35:48.220Z,58.23
2022-08-22T15:38:55.584Z,57.35
2022-08-22T15:42:00.763Z,59.04
2022-08-22T15:45:05.320Z,57.35
2022-08-22T15:48:31.139Z,57.56
2022-08-22T15:51:52.740Z,57.73
2022-08-22T15:54:57.071Z,58.06
2022-08-22T15:58:08.954Z,58.69
2022-08-22T16:01:20.643Z,58.47
2022-08-22T16:04:44.813Z,58.42
2022-08-22T16:08:02.786Z,58.17
2022-08-22T16:11:05.880Z,58.42
2022-08-22T16:14:21.373Z,58.56
2022-08-22T16:17:30.666Z,58.84
2022-08-22T16:20:36.870Z,58.91
2022-08-22T16:23:49.737Z,58.69
2022-08-22T16:26:53.761Z,58.58
2022-08-22T16:30:05.107Z,58.42
2022-08-22T16:33:14.862Z,59.64
2022-08-22T16:36:43.420Z,59.50
2022-08-22T16:39:59.075Z,59.55
2022-08-22T16:43:19.989Z,59.35
2022-08-22T16:46:36.396Z,55.46
2022-08-22T16:49:56.487Z,55.66
2022-08-22T16:53:31.024Z,56.03
2022-08-22T16:57:05.800Z,57.17
2022-08-22T17:00:22.736Z,57.74
2022-08-22T17:03:44.133Z,58.55
2022-08-22T17:07:22.102Z,61.08
2022-08-22T17:10:28.271Z,59.50
2022-08-22T17:13:49.752Z,59.76
2022-08-22T17:17:35.232Z,60.06
2022-08-22T17:20:47.599Z,60.35
2022-08-22T17:24:31.852Z,60.58
2022-08-22T17:27:41.817Z,60.77
2022-08-22T17:30:53.668Z,61.07
2022-08-22T17:34:05.817Z,61.62
2022-08-22T17:37:26.672Z,62.27
2022-08-22T17:40:38.730Z,62.93
2022-08-22T17:44:12.452Z,63.47
2022-08-22T17:47:30.428Z,64.03
2022-08-22T17:50:42.617Z,64.19
2022-08-22T17:53:54.907Z,64.41
2022-08-22T17:57:29.188Z,65.04
2022-08-22T18:00:40.897Z,65.45
2022-08-22T18:03:53.096Z,66.18
2022-08-22T18:07:05.304Z,66.55
2022-08-22T18:10:21.843Z,66.89
2022-08-22T18:13:50.172Z,67.41
2022-08-22T18:16:54.850Z,67.94
2022-08-22T18:20:07.065Z,68.26
2022-08-22T18:23:40.277Z,68.69
2022-08-22T18:26:52.989Z,69.16
2022-08-22T18:30:03.295Z,69.69
2022-08-22T18:33:09.469Z,69.89
2022-08-22T18:36:22.892Z,70.52
2022-08-22T18:39:56.462Z,70.99
2022-08-22T18:43:24.135Z,71.20
2022-08-22T18:46:32.761Z,71.46
2022-08-22T18:49:35.832Z,70.99
2022-08-22T18:52:41.046Z,71.29
2022-08-22T18:55:54.715Z,71.63
2022-08-22T18:59:26.271Z,72.07
2022-08-22T19:02:56.051Z,72.19
2022-08-22T19:06:13.737Z,72.30
2022-08-22T19:09:54.871Z,72.15
2022-08-22T19:13:25.698Z,72.44
2022-08-22T19:16:44.390Z,72.35
2022-08-22T19:20:28.169Z,72.23
2022-08-22T19:23:40.679Z,72.16
2022-08-22T19:26:48.492Z,72.09
2022-08-22T19:29:55.892Z,72.12
2022-08-22T19:33:34.633Z,71.77
2022-08-22T19:36:38.643Z,72.07
2022-08-22T19:39:42.964Z,71.78
2022-08-22T19:42:50.160Z,72.12
2022-08-22T19:45:56.485Z,72.31
2022-08-22T19:49:00.228Z,72.57
2022-08-22T19:52:16.669Z,72.81
2022-08-22T19:55:23.810Z,72.91
2022-08-22T19:58:41.253Z,73.21
2022-08-22T20:01:55.159Z,73.17
2022-08-22T20:05:27.919Z,73.17
2022-08-22T20:08:50.486Z,73.09
2022-08-22T20:12:07.149Z,73.12
2022-08-22T20:15:17.284Z,73.35
2022-08-22T20:19:07.093Z,73.52
2022-08-22T20:22:24.624Z,73.50
2022-08-22T20:25:43.466Z,73.82
2022-08-22T20:28:52.739Z,73.99
2022-08-22T20:31:59.067Z,74.28
2022-08-22T20:35:04.540Z,74.35
2022-08-22T20:38:14.999Z,74.19
2022-08-22T20:41:26.104Z,74.28
2022-08-22T20:44:33.335Z,73.89
2022-08-22T20:47:41.258Z,73.64
2022-08-22T20:50:45.355Z,73.35
2022-08-22T20:53:54.817Z,72.91
2022-08-22T20:57:00.215Z,73.12
2022-08-22T21:00:12.379Z,73.17
2022-08-22T21:03:46.491Z,73.25
2022-08-22T21:06:59.495Z,73.27
2022-08-22T21:10:47.986Z,73.29
2022-08-22T21:13:52.070Z,73.01
2022-08-22T21:16:55.263Z,72.52
2022-08-22T21:20:15.318Z,72.09
2022-08-22T21:23:19.991Z,71.76
2022-08-22T21:26:31.107Z,71.35
2022-08-22T21:29:42.198Z,70.98
2022-08-22T21:32:53.629Z,70.53
2022-08-22T21:36:00.729Z,70.36
2022-08-22T21:39:12.853Z,70.15
2022-08-22T21:42:25.993Z,70.08
2022-08-22T21:45:34.299Z,69.92
2022-08-22T21:49:02.080Z,69.65
2022-08-22T21:52:04.988Z,69.40
2022-08-22T21:55:14.222Z,69.35
2022-08-22T21:58:35.471Z,69.20
2022-08-22T22:01:40.745Z,69.12
2022-08-22T22:04:45.761Z,68.73
2022-08-22T22:07:48.952Z,68.24
2022-08-22T22:10:55.366Z,68.08
2022-08-22T22:13:58.957Z,68.45
2022-08-22T22:17:02.134Z,68.66
2022-08-22T22:20:07.415Z,68.89
2022-08-22T22:23:11.211Z,69.16
2022-08-22T22:26:14.416Z,69.35
2022-08-22T22:29:17.424Z,69.77
2022-08-22T22:32:20.606Z,70.09
2022-08-22T22:35:23.588Z,70.44
2022-08-22T22:38:26.801Z,70.79
2022-08-22T22:41:29.683Z,71.20
2022-08-22T22:44:33.075Z,71.47
2022-08-22T22:47:36.578Z,71.66
2022-08-22T22:50:43.283Z,71.78
2022-08-22T22:53:47.231Z,71.83
2022-08-22T22:56:50.530Z,71.90
2022-08-22T22:59:54.870Z,71.96
2022-08-22T23:03:02.002Z,72.09
2022-08-22T23:06:10.345Z,72.24
2022-08-22T23:09:13.416Z,72.42
2022-08-22T23:12:17.452Z,72.67
2022-08-22T23:15:21.042Z,72.67
2022-08-22T23:18:30.078Z,72.99
2022-08-22T23:21:33.978Z,73.15
2022-08-22T23:24:39.192Z,73.03
2022-08-22T23:27:42.580Z,73.10
2022-08-22T23:30:45.488Z,73.14
2022-08-22T23:33:48.817Z,73.00
2022-08-22T23:36:54.613Z,73.16
2022-08-22T23:39:57.836Z,73.18
2022-08-22T23:43:00.814Z,73.12
2022-08-22T23:46:04.091Z,73.24
2022-08-22T23:49:07.323Z,73.27
2022-08-22T23:52:13.412Z,73.53
2022-08-22T23:55:16.333Z,73.47
2022-08-22T23:58:19.864Z,73.42
